Terminal Aerodrome Forecast
Issued by NWS

Home | Current Version | Previous Version | Graphics & Text | Print | Product List | Glossary On
Versions: 1 2 3 4 5 6 7 8 9 10 11 12 13 14 15 16 17 18 19 20 21 22 23 24 25
000
FTUS43 KGRB 271700
TAFAUW
TAF
KAUW 271730Z 2718/2818 31010G15KT 3SM -SN BR BKN012 OVC050
     FM271900 30012KT P6SM SCT025 BKN070
     FM272300 28010KT P6SM SCT080
     FM280300 27007KT P6SM SKC=

USA.gov is the U.S. government's official web portal to all federal, state and local government web resources and services.